^^
Grace C. Lehan Memorial Weather Station Historical Data
Daily Summary for August 14, 2021 Units:  Metric    English   Both
Daily Weekly Monthly Yearly
  High: Low: Average:
Temperature: 11.3 °C 2.6 °C 6.9 °C
Dew Point: 4.2 °C 0.7 °C 2.4 °C
Humidity: 89% 53.4% 74%
Wind Speed: 6km/h 0km/h 1km/h
Wind Gust: 24.1km/h - -
Wind- - WSW
Pressure: 1012.1 hPa 1007.7 hPa -
Precipitation: 0.51 mm    
 
 
Tabular Data for August 14, 2021
Time Temperature Dew Point Pressure Wind Wind Speed Wind Gust Humidity Rainfall Rate (Hourly) solar
00:04 3.4 °C 1.8 °C 1008 hPa WSW 1.3 km/h 9.7 km/h 89% 0 mm 0 W/m2
00:09 3.4 °C 1.8 °C 1008 hPa Calm   9.7 km/h 89% 0 mm 0 W/m2
00:14 3.4 °C 1.8 °C 1008 hPa WSW 0.6 km/h 9.7 km/h 89% 0 mm 0 W/m2
00:19 3.4 °C 1.8 °C 1008 hPa WSW 0.5 km/h 9.7 km/h 89% 0 mm 0 W/m2
00:24 3.4 °C 1.7 °C 1008 hPa WSW 0.6 km/h 9.7 km/h 89% 0 mm 0 W/m2
00:29 3.3 °C 1.6 °C 1008 hPa SW 2.4 km/h 16.1 km/h 88.5% 0 mm 0 W/m2
00:34 3.3 °C 1.6 °C 1008.4 hPa WSW 6 km/h 16.1 km/h 88% 0 mm 0 W/m2
00:39 3.3 °C 1.6 °C 1008.4 hPa WSW 4 km/h 14.5 km/h 88% 0 mm 0 W/m2
00:44 3.4 °C 1.6 °C 1008.4 hPa WSW 4.5 km/h 16.1 km/h 88% 0 mm 0 W/m2
00:49 3.4 °C 1.6 °C 1008.4 hPa SW 2.1 km/h 16.1 km/h 87.5% 0 mm 0 W/m2
00:54 3.5 °C 1.6 °C 1008 hPa SW 4.8 km/h 24.1 km/h 87% 0 mm 0 W/m2
00:59 3.6 °C 1.6 °C 1008.4 hPa SW 2.3 km/h 24.1 km/h 86.5% 0 mm 0 W/m2
01:04 3.6 °C 1.5 °C 1008.4 hPa SW 1.4 km/h 24.1 km/h 86% 0 mm 0 W/m2
01:09 3.6 °C 1.5 °C 1008.4 hPa WSW 0.8 km/h 11.3 km/h 86% 0 mm 0 W/m2
01:14 3.6 °C 1.5 °C 1008.4 hPa SW 1.4 km/h 11.3 km/h 86% 0 mm 0 W/m2
01:19 3.6 °C 1.4 °C 1008.7 hPa SW 2.1 km/h 11.3 km/h 86% 0 mm 0 W/m2
01:24 3.6 °C 1.4 °C 1008.7 hPa WSW 3.2 km/h 11.3 km/h 86% 0 mm 0 W/m2
01:29 3.6 °C 1.3 °C 1008.7 hPa WSW 1.9 km/h 11.3 km/h 85% 0 mm 0 W/m2
01:34 3.6 °C 1.3 °C 1008.7 hPa WSW 1.4 km/h 11.3 km/h 85% 0 mm 0 W/m2
01:39 3.6 °C 1.3 °C 1008.7 hPa WSW 1.3 km/h 11.3 km/h 85% 0 mm 0 W/m2
01:44 3.5 °C 1.2 °C 1008.7 hPa WSW 0.2 km/h 11.3 km/h 85% 0 mm 0 W/m2
01:49 3.5 °C 1.2 °C 1008.7 hPa West 2.3 km/h 16.1 km/h 85% 0 mm 0 W/m2
01:54 3.5 °C 1.2 °C 1008.7 hPa West 0.3 km/h 16.1 km/h 85% 0 mm 0 W/m2
01:59 3.4 °C 1.2 °C 1008.7 hPa West 0.6 km/h 16.1 km/h 85% 0 mm 0 W/m2
02:04 3.4 °C 1.2 °C 1009 hPa West 0.2 km/h 16.1 km/h 85% 0 mm 0 W/m2
02:09 3.4 °C 1.1 °C 1009 hPa West 0.3 km/h 6.4 km/h 85% 0 mm 0 W/m2
02:14 3.3 °C 1.1 °C 1009 hPa West 0.3 km/h 6.4 km/h 85% 0 mm 0 W/m2
02:19 3.3 °C 1.1 °C 1009.4 hPa West 0.6 km/h 8 km/h 85% 0 mm 0 W/m2
02:24 3.3 °C 1 °C 1009.4 hPa West 1.8 km/h 11.3 km/h 85% 0 mm 0 W/m2
02:29 3.3 °C 1.1 °C 1009.4 hPa West 1.3 km/h 11.3 km/h 85% 0 mm 0 W/m2
02:34 3.3 °C 1.1 °C 1009.4 hPa WNW 0.8 km/h 11.3 km/h 85% 0 mm 0 W/m2
02:39 3.3 °C 1.1 °C 1009 hPa WSW 2.3 km/h 16.1 km/h 85% 0 mm 0 W/m2
02:44 3.4 °C 1.1 °C 1009 hPa WSW 2.4 km/h 16.1 km/h 85% 0 mm 0 W/m2
02:49 3.4 °C 1.1 °C 1009 hPa WSW 3.5 km/h 16.1 km/h 84.9% 0 mm 0 W/m2
02:54 3.4 °C 1.1 °C 1009 hPa WSW 4.3 km/h 16.1 km/h 84.2% 0 mm 0 W/m2
02:59 3.5 °C 1.1 °C 1009 hPa West 2.9 km/h 16.1 km/h 84% 0 mm 0 W/m2
03:04 3.5 °C 1.1 °C 1009.4 hPa WSW 3.9 km/h 16.1 km/h 84% 0 mm 0 W/m2
03:09 3.5 °C 1.1 °C 1009.4 hPa West 1.6 km/h 16.1 km/h 84% 0 mm 0 W/m2
03:14 3.5 °C 1.1 °C 1009.4 hPa West 1.9 km/h 16.1 km/h 84% 0 mm 0 W/m2
03:19 3.4 °C 1 °C 1009.4 hPa WSW 2.6 km/h 16.1 km/h 84% 0 mm 0 W/m2
03:24 3.4 °C 1 °C 1009.4 hPa WSW 3.1 km/h 20.9 km/h 84% 0 mm 0 W/m2
03:29 3.4 °C 1 °C 1009.4 hPa WSW 1.8 km/h 20.9 km/h 84% 0 mm 0 W/m2
03:34 3.4 °C 0.9 °C 1009.4 hPa WSW 1 km/h 20.9 km/h 84% 0 mm 0 W/m2
03:39 3.3 °C 1.1 °C 1009.4 hPa WSW 1.1 km/h 11.3 km/h 84.9% 0 mm 0 W/m2
03:44 3.3 °C 1.1 °C 1009.4 hPa WSW 1.9 km/h 11.3 km/h 85% 0 mm 0 W/m2
03:49 3.3 °C 1 °C 1009.7 hPa WSW 3.5 km/h 12.9 km/h 85% 0 mm 0 W/m2
03:54 3.3 °C 1 °C 1009.7 hPa WSW 1.4 km/h 12.9 km/h 85% 0 mm 0 W/m2
03:59 3.3 °C 1 °C 1009.7 hPa WSW 0.6 km/h 12.9 km/h 85% 0 mm 0 W/m2
04:00 3.3 °C 1 °C 1009.7 hPa Calm   12.9 km/h 85% 0 mm 0 W/m2
04:09 3.2 °C 0.9 °C 1009.7 hPa WSW 0.6 km/h 4.8 km/h 85% 0 mm 0 W/m2
04:14 3.2 °C 0.9 °C 1009.7 hPa WSW 2.1 km/h 16.1 km/h 85% 0 mm 0 W/m2
04:19 3.2 °C 0.9 °C 1009.7 hPa WSW 1.6 km/h 16.1 km/h 85% 0 mm 0 W/m2
04:24 3.2 °C 0.9 °C 1009.7 hPa WSW 2.3 km/h 16.1 km/h 85% 0 mm 0 W/m2
04:29 3.2 °C 0.9 °C 1009.7 hPa WSW 1.8 km/h 16.1 km/h 85% 0 mm 0 W/m2
04:34 3.2 °C 0.9 °C 1009.7 hPa SW 4.2 km/h 17.7 km/h 85% 0 mm 0 W/m2
04:39 3.2 °C 1.1 °C 1009.7 hPa SW 1.9 km/h 17.7 km/h 85.9% 0 mm 0 W/m2
04:44 3.1 °C 1 °C 1009.7 hPa WSW 1.6 km/h 17.7 km/h 86% 0 mm 0 W/m2
04:49 3.1 °C 1 °C 1010 hPa WSW 1 km/h 17.7 km/h 86% 0 mm 0 W/m2
04:54 3.1 °C 0.8 °C 1010 hPa WSW 0.6 km/h 17.7 km/h 85.3% 0 mm 0 W/m2
04:59 3.1 °C 0.8 °C 1010 hPa WSW 0.2 km/h 17.7 km/h 85.4% 0 mm 0 W/m2
05:04 3 °C 0.9 °C 1010 hPa WSW 0.6 km/h 17.7 km/h 86% 0 mm 0 W/m2
05:09 2.9 °C 0.8 °C 1010 hPa WSW 0.6 km/h 12.9 km/h 85.8% 0 mm 0 W/m2
05:14 2.9 °C 0.8 °C 1010 hPa WSW 0.5 km/h 12.9 km/h 86% 0 mm 0 W/m2
05:19 2.8 °C 0.7 °C 1010 hPa WSW 1.8 km/h 12.9 km/h 86% 0 mm 0 W/m2
05:24 2.8 °C 0.7 °C 1010 hPa WSW 1.4 km/h 12.9 km/h 86% 0 mm 0 W/m2
05:29 2.8 °C 0.7 °C 1010 hPa WSW 0.8 km/h 12.9 km/h 86% 0 mm 0 W/m2
05:34 2.8 °C 0.7 °C 1010 hPa WSW 1 km/h 12.9 km/h 86.3% 0 mm 0 W/m2
05:39 2.7 °C 0.8 °C 1010 hPa WSW 0.3 km/h 8 km/h 87% 0 mm 0 W/m2
05:44 2.7 °C 0.7 °C 1010.4 hPa WSW 0.2 km/h 8 km/h 87% 0 mm 0 W/m2
05:49 2.7 °C 0.7 °C 1010.4 hPa Calm   8 km/h 87% 0 mm 0 W/m2
05:54 2.7 °C 0.7 °C 1010.4 hPa Calm   8 km/h 87% 0 mm 0 W/m2
05:59 2.6 °C 0.7 °C 1010.4 hPa Calm   8 km/h 87% 0 mm 0 W/m2
06:04 2.6 °C 0.7 °C 1010.4 hPa WSW 0.3 km/h 8 km/h 87.5% 0 mm 0 W/m2
06:09 2.6 °C 0.8 °C 1010.4 hPa WSW 1.3 km/h 9.7 km/h 88% 0 mm 0 W/m2
06:14 2.6 °C 0.8 °C 1010.4 hPa SW 0.6 km/h 9.7 km/h 88% 0 mm 0 W/m2
06:19 2.6 °C 0.8 °C 1010.4 hPa SW 1 km/h 9.7 km/h 88% 0 mm 0 W/m2
06:24 2.6 °C 0.8 °C 1010.4 hPa Calm   9.7 km/h 88% 0 mm 0 W/m2
06:29 2.6 °C 0.8 °C 1010.4 hPa SW 0.2 km/h 9.7 km/h 88% 0 mm 0 W/m2
06:34 2.6 °C 0.8 °C 1010.7 hPa SW 0.5 km/h 9.7 km/h 88% 0 mm 0 W/m2
06:39 2.6 °C 0.8 °C 1010.7 hPa WSW 0.2 km/h 4.8 km/h 88% 0 mm 0 W/m2
06:44 2.6 °C 0.8 °C 1010.7 hPa WSW 0.3 km/h 4.8 km/h 88% 0 mm 5 W/m2
06:49 2.6 °C 0.8 °C 1010.7 hPa WSW 1.3 km/h 16.1 km/h 88% 0 mm 7 W/m2
06:54 2.7 °C 0.9 °C 1010.7 hPa West 0.2 km/h 16.1 km/h 88% 0 mm 11 W/m2
06:59 2.7 °C 0.9 °C 1010.7 hPa West 0.6 km/h 16.1 km/h 88% 0 mm 12 W/m2
07:04 2.7 °C 0.9 °C 1011.1 hPa West 0.5 km/h 16.1 km/h 88% 0 mm 16 W/m2
07:09 2.7 °C 0.9 °C 1011.1 hPa West 3.4 km/h 16.1 km/h 88% 0 mm 21 W/m2
07:14 2.8 °C 1.1 °C 1010.7 hPa West 1 km/h 16.1 km/h 88% 0 mm 49 W/m2
07:19 3 °C 1.2 °C 1011.1 hPa West 0.6 km/h 16.1 km/h 88% 0 mm 33 W/m2
07:24 3.2 °C 1.4 °C 1011.1 hPa WSW 2.7 km/h 16.1 km/h 87.9% 0 mm 23 W/m2
07:29 3.3 °C 1.5 °C 1011.4 hPa West 1.3 km/h 16.1 km/h 87.6% 0 mm 33 W/m2
07:34 3.5 °C 1.6 °C 1011.1 hPa West 2.1 km/h 16.1 km/h 86.9% 0 mm 39 W/m2
07:39 3.6 °C 1.5 °C 1011.4 hPa WSW 1.4 km/h 9.7 km/h 86% 0 mm 44 W/m2
07:44 3.8 °C 1.7 °C 1011.7 hPa WSW 0.8 km/h 9.7 km/h 86% 0 mm 49 W/m2
07:49 3.9 °C 1.8 °C 1011.7 hPa West 0.3 km/h 9.7 km/h 86% 0 mm 47 W/m2
07:54 4.1 °C 1.9 °C 1011.7 hPa WSW 0.8 km/h 9.7 km/h 85.9% 0 mm 113 W/m2
07:59 4.3 °C 2.1 °C 1011.7 hPa WSW 1 km/h 9.7 km/h 85.1% 0 mm 186 W/m2
08:00 4.5 °C 2.2 °C 1011.4 hPa Calm   9.7 km/h 85% 0 mm 162 W/m2
08:09 5.2 °C 2.7 °C 1011.7 hPa WSW 0.2 km/h 3.2 km/h 84% 0 mm 197 W/m2
08:14 5.7 °C 3.1 °C 1011.7 hPa WNW 0.6 km/h 8 km/h 83.1% 0 mm 253 W/m2
08:19 6.3 °C 3.2 °C 1011.7 hPa WNW 0.8 km/h 8 km/h 80.8% 0 mm 272 W/m2
08:24 6.8 °C 3.4 °C 1011.7 hPa Calm   8 km/h 79.2% 0 mm 287 W/m2
08:29 7.3 °C 3.6 °C 1011.7 hPa WNW 1.8 km/h 8 km/h 76.9% 0 mm 299 W/m2
08:34 7.8 °C 3.6 °C 1011.7 hPa West 0.6 km/h 8 km/h 74.4% 0 mm 309 W/m2
08:39 8.2 °C 3.6 °C 1011.7 hPa WSW 2.6 km/h 14.5 km/h 72.8% 0 mm 323 W/m2
08:44 8.4 °C 3.5 °C 1011.7 hPa WSW 2.3 km/h 14.5 km/h 71% 0 mm 332 W/m2
08:49 8.7 °C 3.6 °C 1011.7 hPa West 0.6 km/h 14.5 km/h 70.2% 0 mm 341 W/m2
08:54 8.9 °C 3.7 °C 1011.7 hPa WNW 1.6 km/h 14.5 km/h 70.1% 0 mm 348 W/m2
08:59 9 °C 3.7 °C 1011.7 hPa WSW 1.3 km/h 14.5 km/h 69.5% 0 mm 367 W/m2
09:04 9 °C 3.6 °C 1011.7 hPa WSW 1.4 km/h 14.5 km/h 68.8% 0 mm 367 W/m2
09:09 8.9 °C 3.6 °C 1012.1 hPa WSW 0.8 km/h 11.3 km/h 68.9% 0 mm 139 W/m2
09:14 8.8 °C 3.4 °C 1012.1 hPa WSW 1.3 km/h 11.3 km/h 68.7% 0 mm 308 W/m2
09:19 8.7 °C 3.4 °C 1011.7 hPa West 1.8 km/h 12.9 km/h 69.7% 0 mm 367 W/m2
09:24 8.7 °C 3.5 °C 1012.1 hPa WSW 3.5 km/h 14.5 km/h 70% 0 mm 288 W/m2
09:29 8.7 °C 3.3 °C 1012.1 hPa WSW 2.1 km/h 14.5 km/h 68.9% 0 mm 267 W/m2
09:34 8.8 °C 3.6 °C 1012.1 hPa West 1.1 km/h 14.5 km/h 69.8% 0 mm 227 W/m2
09:39 8.9 °C 3.7 °C 1012.1 hPa West 0.5 km/h 6.4 km/h 69.9% 0 mm 127 W/m2
09:44 8.9 °C 3.7 °C 1012.1 hPa West 2.6 km/h 8 km/h 69.5% 0 mm 359 W/m2
09:49 9 °C 3.5 °C 1012.1 hPa West 0.3 km/h 8 km/h 68.5% 0 mm 427 W/m2
09:54 9.2 °C 3.7 °C 1012.1 hPa West 1.1 km/h 8 km/h 68.3% 0 mm 320 W/m2
09:59 9.4 °C 3.9 °C 1012.1 hPa West 0.8 km/h 8 km/h 68.5% 0 mm 383 W/m2
10:04 9.7 °C 4.1 °C 1012.1 hPa West 0.5 km/h 8 km/h 68% 0 mm 439 W/m2
10:09 10.1 °C 3.9 °C 1012.1 hPa West 1.6 km/h 11.3 km/h 65.9% 0 mm 487 W/m2
10:14 10.4 °C 4.2 °C 1012.1 hPa West 0.6 km/h 11.3 km/h 65.3% 0 mm 429 W/m2
10:19 10.6 °C 3.8 °C 1011.7 hPa West 1.4 km/h 11.3 km/h 62.6% 0 mm 399 W/m2
10:24 10.7 °C 3.5 °C 1012.1 hPa West 1.1 km/h 11.3 km/h 61.1% 0 mm 292 W/m2
10:29 10.7 °C 3.8 °C 1011.7 hPa West 0.2 km/h 11.3 km/h 62.2% 0 mm 257 W/m2
10:34 10.7 °C 3.8 °C 1011.7 hPa Calm   11.3 km/h 62.5% 0 mm 316 W/m2
10:39 10.7 °C 3.8 °C 1011.7 hPa West 0.5 km/h 6.4 km/h 62% 0 mm 283 W/m2
10:44 10.8 °C 4.2 °C 1011.7 hPa Calm   6.4 km/h 63.2% 0 mm 285 W/m2
10:49 11.1 °C 4.1 °C 1011.7 hPa West 1.1 km/h 6.4 km/h 62.2% 0 mm 218 W/m2
10:54 11.2 °C 3.9 °C 1011.7 hPa West 1.8 km/h 9.7 km/h 60.8% 0 mm 206 W/m2
10:59 11.2 °C 3.3 °C 1011.4 hPa West 1.8 km/h 11.3 km/h 58.6% 0 mm 207 W/m2
11:04 11.1 °C 3.2 °C 1011.4 hPa West 1.9 km/h 11.3 km/h 58.3% 0 mm 299 W/m2
11:09 11 °C 3.3 °C 1011.4 hPa WNW 3.1 km/h 17.7 km/h 59% 0 mm 299 W/m2
11:14 10.9 °C 3.2 °C 1011.4 hPa West 2.7 km/h 17.7 km/h 59% 0 mm 193 W/m2
11:19 10.7 °C 3.1 °C 1011.4 hPa West 1.4 km/h 17.7 km/h 59.1% 0 mm 221 W/m2
11:24 10.7 °C 3.4 °C 1011.1 hPa West 1.8 km/h 17.7 km/h 60.6% 0 mm 221 W/m2
11:29 10.7 °C 3.4 °C 1011.1 hPa West 1.4 km/h 17.7 km/h 60.6% 0 mm 190 W/m2
11:34 10.8 °C 3.2 °C 1011.1 hPa West 4.7 km/h 17.7 km/h 59.4% 0 mm 193 W/m2
11:39 10.8 °C 2.9 °C 1011.1 hPa WSW 2.3 km/h 12.9 km/h 58.2% 0 mm 207 W/m2
11:44 10.8 °C 2.9 °C 1011.1 hPa WSW 2.9 km/h 14.5 km/h 58.3% 0 mm 255 W/m2
11:49 10.8 °C 3.1 °C 1011.1 hPa West 1.9 km/h 14.5 km/h 58.7% 0 mm 229 W/m2
11:54 10.9 °C 2.8 °C 1011.1 hPa West 1 km/h 14.5 km/h 57.5% 0 mm 213 W/m2
11:55 10.9 °C 3 °C 1010.7 hPa Calm   14.5 km/h 58% 0 mm 209 W/m2
12:09 11 °C 3.1 °C 1010.7 hPa WSW 0.6 km/h 6.4 km/h 58.2% 0 mm 186 W/m2
12:14 11 °C 2.9 °C 1010.7 hPa WSW 0.3 km/h 6.4 km/h 57.4% 0 mm 195 W/m2
12:19 11 °C 2.9 °C 1010.7 hPa WSW 2.1 km/h 9.7 km/h 57.6% 0 mm 243 W/m2
12:24 11 °C 2.9 °C 1010.7 hPa WSW 1.1 km/h 9.7 km/h 57.3% 0 mm 278 W/m2
12:29 11.1 °C 2.9 °C 1010.7 hPa WSW 0.6 km/h 9.7 km/h 57% 0 mm 362 W/m2
12:34 11.2 °C 2.6 °C 1010.7 hPa WSW 0.3 km/h 9.7 km/h 55.4% 0 mm 278 W/m2
12:39 11.3 °C 2.6 °C 1010.4 hPa SW 1.6 km/h 9.7 km/h 54.8% 0 mm 193 W/m2
12:44 11.3 °C 2.8 °C 1010.4 hPa SW 0.8 km/h 9.7 km/h 55.9% 0 mm 183 W/m2
12:49 11.2 °C 2.4 °C 1010.4 hPa WSW 0.8 km/h 9.7 km/h 54.7% 0 mm 202 W/m2
12:54 11.2 °C 2.8 °C 1010.4 hPa West 1.4 km/h 9.7 km/h 56.2% 0 mm 206 W/m2
12:59 11.2 °C 2.6 °C 1010 hPa WNW 1.9 km/h 9.7 km/h 55.5% 0 mm 197 W/m2
13:04 11.2 °C 2.5 °C 1010 hPa WNW 0.2 km/h 9.7 km/h 55.1% 0 mm 178 W/m2
13:09 11.2 °C 2.5 °C 1010 hPa Calm   3.2 km/h 55.1% 0 mm 151 W/m2
13:14 11.1 °C 2.2 °C 1010 hPa WNW 0.2 km/h 3.2 km/h 54.2% 0 mm 139 W/m2
13:19 11 °C 2.1 °C 1009.7 hPa Calm   3.2 km/h 54% 0 mm 134 W/m2
13:24 10.9 °C 2.3 °C 1009.7 hPa Calm   3.2 km/h 55.4% 0 mm 134 W/m2
13:29 10.8 °C 2.4 °C 1009.7 hPa WNW 0.2 km/h 4.8 km/h 56% 0 mm 128 W/m2
13:34 10.8 °C 2.4 °C 1009.7 hPa Calm   4.8 km/h 56% 0 mm 128 W/m2
13:39 10.8 °C 2.2 °C 1010 hPa Calm   1.6 km/h 55.4% 0 mm 141 W/m2
13:44 10.8 °C 2.5 °C 1010 hPa Calm   1.6 km/h 56.5% 0 mm 144 W/m2
13:49 10.8 °C 1.9 °C 1010 hPa WNW 0.3 km/h 4.8 km/h 54.3% 0 mm 144 W/m2
13:54 10.8 °C 1.7 °C 1010 hPa Calm   4.8 km/h 53.4% 0 mm 128 W/m2
13:59 10.8 °C 2.3 °C 1010 hPa Calm   4.8 km/h 55.7% 0 mm 123 W/m2
14:04 10.8 °C 2.3 °C 1009.7 hPa Calm   4.8 km/h 55.7% 0 mm 109 W/m2
14:09 10.8 °C 2.6 °C 1009.7 hPa WNW 0.2 km/h 1.6 km/h 56.7% 0 mm 95 W/m2
14:14 10.8 °C 2.2 °C 1009.7 hPa WNW 0.5 km/h 4.8 km/h 55.3% 0 mm 102 W/m2
14:19 10.7 °C 2 °C 1009.7 hPa WNW 0.2 km/h 4.8 km/h 54.7% 0 mm 102 W/m2
14:24 10.7 °C 1.8 °C 1009.7 hPa Calm   4.8 km/h 54.1% 0 mm 97 W/m2
14:29 10.6 °C 1.8 °C 1009.7 hPa Calm   4.8 km/h 54.7% 0 mm 93 W/m2
14:34 10.5 °C 2.1 °C 1009.7 hPa Calm   4.8 km/h 55.9% 0 mm 84 W/m2
14:39 10.5 °C 2.2 °C 1009.7 hPa WNW 0.3 km/h 6.4 km/h 56.4% 0 mm 76 W/m2
14:44 10.4 °C 1.9 °C 1009.7 hPa Calm   6.4 km/h 55.5% 0 mm 62 W/m2
14:49 10.3 °C 1.8 °C 1009.7 hPa West 0.2 km/h 6.4 km/h 55.4% 0 mm 54 W/m2
14:54 10.3 °C 1.8 °C 1009.7 hPa West 0.6 km/h 6.4 km/h 55.5% 0 mm 51 W/m2
14:59 10.3 °C 1.9 °C 1009.7 hPa Calm   6.4 km/h 56% 0 mm 53 W/m2
15:04 10.2 °C 1.9 °C 1009.7 hPa Calm   6.4 km/h 56.2% 0 mm 54 W/m2
15:09 10.2 °C 2.1 °C 1009.7 hPa West 0.5 km/h 6.4 km/h 57.2% 0 mm 54 W/m2
15:14 10.1 °C 2.4 °C 1009.4 hPa West 0.2 km/h 6.4 km/h 58.7% 0 mm 53 W/m2
15:19 10.1 °C 2.4 °C 1009.4 hPa WSW 2.3 km/h 8 km/h 59.2% 0 mm 42 W/m2
15:24 10 °C 2.5 °C 1009.4 hPa WSW 0.2 km/h 8 km/h 59.7% 0 mm 30 W/m2
15:29 9.9 °C 2.6 °C 1009.4 hPa WSW 0.5 km/h 8 km/h 60% 0 mm 26 W/m2
15:34 9.9 °C 2.6 °C 1009.7 hPa WSW 0.6 km/h 8 km/h 60.4% 0 mm 23 W/m2
15:39 9.8 °C 2.8 °C 1009.7 hPa Calm   4.8 km/h 61.3% 0 mm 23 W/m2
15:44 9.8 °C 2.6 °C 1009.7 hPa SW 0.5 km/h 6.4 km/h 61% 0 mm 26 W/m2
15:49 9.8 °C 2.9 °C 1009.7 hPa SW 0.2 km/h 6.4 km/h 62.5% 0 mm 30 W/m2
15:54 9.8 °C 3.1 °C 1009.7 hPa SW 0.2 km/h 6.4 km/h 63% 0 mm 30 W/m2
15:59 9.7 °C 3.1 °C 1009.7 hPa Calm   6.4 km/h 63.2% 0 mm 25 W/m2
16:00 9.8 °C 3.1 °C 1009.7 hPa Calm   6.4 km/h 63% 0 mm 25 W/m2
16:09 9.7 °C 2.8 °C 1009.7 hPa Calm   3.2 km/h 62.3% 0 mm 18 W/m2
16:14 9.6 °C 2.5 °C 1009.7 hPa SW 1 km/h 6.4 km/h 61.3% 0 mm 11 W/m2
16:19 9.4 °C 2.2 °C 1009.4 hPa SW 0.8 km/h 6.4 km/h 60.5% 0 mm 7 W/m2
16:24 9.3 °C 2.3 °C 1009.4 hPa SW 1.4 km/h 9.7 km/h 61.5% 0 mm 5 W/m2
16:29 9.2 °C 2.4 °C 1009.7 hPa SW 0.3 km/h 9.7 km/h 62.6% 0 mm 0 W/m2
16:34 9.1 °C 2.4 °C 1009.7 hPa SW 0.2 km/h 9.7 km/h 63% 0 mm 0 W/m2
16:39 9 °C 2.3 °C 1009.7 hPa Calm   3.2 km/h 63% 0 mm 0 W/m2
16:44 8.9 °C 2.4 °C 1009.7 hPa SW 0.3 km/h 4.8 km/h 63.7% 0 mm 0 W/m2
16:49 8.8 °C 2.4 °C 1009.7 hPa SW 0.2 km/h 4.8 km/h 64.2% 0 mm 0 W/m2
16:54 8.8 °C 2.6 °C 1009.7 hPa Calm   4.8 km/h 64.7% 0 mm 0 W/m2
16:59 8.8 °C 2.7 °C 1009.4 hPa Calm   4.8 km/h 65.5% 0 mm 0 W/m2
17:04 8.7 °C 2.7 °C 1009.4 hPa SW 0.5 km/h 4.8 km/h 66% 0 mm 0 W/m2
17:09 8.7 °C 2.7 °C 1009.4 hPa Calm   4.8 km/h 66% 0 mm 0 W/m2
17:14 8.7 °C 2.7 °C 1009.4 hPa Calm   4.8 km/h 66% 0 mm 0 W/m2
17:19 8.6 °C 2.8 °C 1009.4 hPa Calm   4.8 km/h 66.9% 0 mm 0 W/m2
17:24 8.6 °C 2.8 °C 1009 hPa SW 0.2 km/h 4.8 km/h 67% 0 mm 0 W/m2
17:29 8.5 °C 2.8 °C 1009 hPa Calm   4.8 km/h 67.2% 0 mm 0 W/m2
17:34 8.4 °C 2.9 °C 1009.4 hPa SW 0.5 km/h 6.4 km/h 68% 0 mm 0 W/m2
17:39 8.4 °C 2.9 °C 1009 hPa SW 0.5 km/h 6.4 km/h 68% 0 mm 0 W/m2
17:44 8.4 °C 2.9 °C 1009 hPa SSW 0.8 km/h 6.4 km/h 68% 0 mm 0 W/m2
17:49 8.4 °C 2.8 °C 1009.4 hPa SSW 0.3 km/h 6.4 km/h 68% 0 mm 0 W/m2
17:54 8.3 °C 2.8 °C 1009 hPa SSW 1.4 km/h 8 km/h 68% 0 mm 0 W/m2
17:59 8.3 °C 2.8 °C 1009.4 hPa South 1.3 km/h 11.3 km/h 68.5% 0 mm 0 W/m2
18:04 8.2 °C 2.9 °C 1009.4 hPa South 0.6 km/h 11.3 km/h 69.1% 0 mm 0 W/m2
18:09 8.1 °C 3 °C 1009.4 hPa South 0.2 km/h 4.8 km/h 70% 0 mm 0 W/m2
18:14 8.1 °C 2.9 °C 1009.7 hPa South 0.5 km/h 4.8 km/h 70.2% 0 mm 0 W/m2
18:19 7.9 °C 3 °C 1009.7 hPa SSW 0.3 km/h 4.8 km/h 71% 0 mm 0 W/m2
18:24 7.8 °C 3 °C 1009.7 hPa SSW 0.3 km/h 4.8 km/h 71.6% 0 mm 0 W/m2
18:29 7.7 °C 3 °C 1009.7 hPa SSW 0.2 km/h 4.8 km/h 72% 0 mm 0 W/m2
18:34 7.7 °C 3.1 °C 1009.7 hPa SSW 0.2 km/h 4.8 km/h 73% 0 mm 0 W/m2
18:39 7.6 °C 3.1 °C 1009.4 hPa Calm   3.2 km/h 73% 0 mm 0 W/m2
18:44 7.6 °C 3.1 °C 1009.4 hPa Calm   3.2 km/h 73% 0 mm 0 W/m2
18:49 7.7 °C 3.2 °C 1009.4 hPa Calm   3.2 km/h 73.3% 0 mm 0 W/m2
18:54 7.7 °C 3.4 °C 1009 hPa Calm   3.2 km/h 74% 0 mm 0 W/m2
18:59 7.8 °C 3.4 °C 1009 hPa Calm   3.2 km/h 73.8% 0 mm 0 W/m2
19:04 7.8 °C 3.2 °C 1009 hPa Calm   3.2 km/h 73% 0 mm 0 W/m2
19:09 7.8 °C 3.4 °C 1009 hPa Calm     74% 0 mm 0 W/m2
19:14 7.8 °C 3.4 °C 1009 hPa Calm     74% 0 mm 0 W/m2
19:19 7.8 °C 3.4 °C 1009 hPa Calm     74% 0 mm 0 W/m2
19:24 7.8 °C 3.4 °C 1009 hPa Calm     74% 0 mm 0 W/m2
19:29 7.7 °C 3.4 °C 1008.7 hPa Calm     74% 0 mm 0 W/m2
19:34 7.7 °C 3.3 °C 1008.7 hPa Calm     74% 0 mm 0 W/m2
19:39 7.6 °C 3.4 °C 1009 hPa Calm     74.9% 0 mm 0 W/m2
19:44 7.6 °C 3.4 °C 1008.7 hPa Calm     75% 0 mm 0 W/m2
19:49 7.6 °C 3.4 °C 1008.7 hPa Calm     75% 0 mm 0 W/m2
19:54 7.5 °C 3.4 °C 1008.7 hPa Calm     75% 0 mm 0 W/m2
19:59 7.4 °C 3.4 °C 1008.7 hPa Calm     75.3% 0 mm 0 W/m2
20:00 7.4 °C 3.3 °C 1008.7 hPa Calm     75% 0 mm 0 W/m2
20:09 7.4 °C 3.4 °C 1008.7 hPa Calm     76% 0 mm 0 W/m2
20:14 7.3 °C 3.4 °C 1008.4 hPa Calm     76% 0 mm 0 W/m2
20:19 7.3 °C 3.4 °C 1008.7 hPa Calm     76% 0 mm 0 W/m2
20:24 7.3 °C 3.3 °C 1008.7 hPa Calm     76% 0 mm 0 W/m2
20:29 7.3 °C 3.5 °C 1008.7 hPa Calm     76.8% 0 mm 0 W/m2
20:34 7.2 °C 3.4 °C 1008.7 hPa Calm     77% 0 mm 0 W/m2
20:39 7.2 °C 3.4 °C 1008.7 hPa Calm     77% 0 mm 0 W/m2
20:44 7.1 °C 3.3 °C 1008.7 hPa Calm     77% 0 mm 0 W/m2
20:49 7.1 °C 3.4 °C 1008.7 hPa Calm     77.4% 0 mm 0 W/m2
20:54 7 °C 3.4 °C 1008.7 hPa Calm     77.8% 0 mm 0 W/m2
20:59 6.9 °C 3.4 °C 1008.4 hPa Calm     78% 0 mm 0 W/m2
21:04 6.9 °C 3.3 °C 1008.4 hPa Calm     78% 0 mm 0 W/m2
21:09 6.9 °C 3.4 °C 1008.7 hPa Calm     78.4% 0 mm 0 W/m2
21:14 6.9 °C 3.4 °C 1008.4 hPa Calm     78.8% 0 mm 0 W/m2
21:19 6.9 °C 3.5 °C 1008.4 hPa Calm     79% 0 mm 0 W/m2
21:24 6.9 °C 3.6 °C 1008.4 hPa Calm     79.3% 0 mm 0 W/m2
21:29 6.9 °C 3.7 °C 1008.4 hPa Calm     80% 0 mm 0 W/m2
21:34 6.9 °C 3.6 °C 1008.4 hPa Calm     79% 0 mm 0 W/m2
21:39 6.9 °C 3.6 °C 1008 hPa Calm     79% 0 mm 0 W/m2
21:44 6.9 °C 3.6 °C 1008 hPa Calm     79% 0 mm 0 W/m2
21:49 6.9 °C 3.6 °C 1008 hPa Calm     79% 0 mm 0 W/m2
21:54 6.9 °C 3.6 °C 1008 hPa Calm     79% 0 mm 0 W/m2
21:59 7 °C 3.4 °C 1008 hPa Calm     77.8% 0 mm 0 W/m2
22:04 7 °C 3.3 °C 1008 hPa Calm     77.1% 0 mm 0 W/m2
22:09 7.1 °C 3.5 °C 1007.7 hPa Calm     78% 0 mm 0 W/m2
22:14 7.1 °C 3.4 °C 1007.7 hPa Calm     77.7% 0 mm 0 W/m2
22:19 7.1 °C 3.3 °C 1007.7 hPa Calm     77% 0 mm 0 W/m2
22:24 7.1 °C 3.3 °C 1007.7 hPa Calm     77% 0 mm 0 W/m2
22:29 7.1 °C 3.3 °C 1007.7 hPa Calm     77% 0 mm 0 W/m2
22:34 7 °C 3.4 °C 1007.7 hPa Calm     77.7% 0 mm 0 W/m2
22:39 7 °C 3.4 °C 1007.7 hPa Calm   1.6 km/h 78% 0 mm 0 W/m2
22:44 6.9 °C 3.2 °C 1007.7 hPa Calm   1.6 km/h 76.9% 0 mm 0 W/m2
22:49 6.9 °C 3 °C 1007.7 hPa Calm   1.6 km/h 76% 0 mm 0 W/m2
22:54 6.9 °C 2.9 °C 1007.7 hPa SSW 0.5 km/h 6.4 km/h 76% 0 mm 0 W/m2
22:59 6.9 °C 2.9 °C 1007.7 hPa SW 1.4 km/h 8 km/h 76% 0 mm 0 W/m2
23:00 6.9 °C 2.9 °C 1007.7 hPa Calm   8 km/h 76% 0 mm 0 W/m2
23:09 6.9 °C 3.2 °C 1007.7 hPa SW 1 km/h 8 km/h 77% 0 mm 0 W/m2
23:14 6.9 °C 3.2 °C 1007.7 hPa SW 0.3 km/h 8 km/h 77% 0 mm 0 W/m2
23:19 6.9 °C 3.3 °C 1007.7 hPa SW 3.5 km/h 16.1 km/h 78.1% 0 mm 0 W/m2
23:24 6.8 °C 3.4 °C 1007.7 hPa SW 6 km/h 16.1 km/h 79.1% 0 mm 0 W/m2
23:29 6.7 °C 3.5 °C 1007.7 hPa SW 3.5 km/h 16.1 km/h 80.3% 0.25 mm 0 W/m2
23:34 6.6 °C 3.5 °C 1007.7 hPa SW 0.5 km/h 16.1 km/h 81% 0.25 mm 0 W/m2
23:39 6.4 °C 3.6 °C 1007.7 hPa SW 0.2 km/h 4.8 km/h 82.2% 0.51 mm 0 W/m2
23:44 6.3 °C 3.7 °C 1007.7 hPa SW 0.2 km/h 4.8 km/h 83.3% 0.51 mm 0 W/m2
23:49 6.2 °C 3.7 °C 1007.7 hPa SW 0.5 km/h 6.4 km/h 84% 0.51 mm 0 W/m2
23:53 6.1 °C 3.8 °C 1007.7 hPa SW 1.1 km/h 6.4 km/h 84.7% 0.51 mm 0 W/m2
23:59 6 °C 3.7 °C 1007.7 hPa SW 1.8 km/h 9.7 km/h 85% 0.51 mm 0 W/m2
Hartford County Weather
Compliments of Weather Underground - 4 mb